sensor_id;sensor_type;location;lat;lon;timestamp;P1;durP1;ratioP1;P2;durP2;ratioP2
22260;SDS011;11299;43.202;27.920;2023-05-10T00:01:54;11.82;;;5.93;;
22260;SDS011;11299;43.202;27.920;2023-05-10T00:04:20;15.93;;;8.27;;
22260;SDS011;11299;43.202;27.920;2023-05-10T00:06:46;19.08;;;10.32;;
22260;SDS011;11299;43.202;27.920;2023-05-10T00:09:12;21.00;;;11.10;;
22260;SDS011;11299;43.202;27.920;2023-05-10T00:11:37;21.95;;;13.50;;
22260;SDS011;11299;43.202;27.920;2023-05-10T00:14:03;24.52;;;15.13;;
22260;SDS011;11299;43.202;27.920;2023-05-10T00:16:28;24.80;;;16.38;;
22260;SDS011;11299;43.202;27.920;2023-05-10T00:18:54;24.38;;;15.02;;
22260;SDS011;11299;43.202;27.920;2023-05-10T00:21:19;26.05;;;15.02;;
22260;SDS011;11299;43.202;27.920;2023-05-10T00:23:45;21.83;;;14.65;;
22260;SDS011;11299;43.202;27.920;2023-05-10T00:26:10;22.58;;;15.63;;
22260;SDS011;11299;43.202;27.920;2023-05-10T00:28:35;23.73;;;14.32;;
22260;SDS011;11299;43.202;27.920;2023-05-10T00:31:01;21.48;;;14.27;;
22260;SDS011;11299;43.202;27.920;2023-05-10T00:33:26;25.10;;;13.63;;
22260;SDS011;11299;43.202;27.920;2023-05-10T00:35:52;23.27;;;13.20;;
22260;SDS011;11299;43.202;27.920;2023-05-10T00:38:17;17.65;;;12.93;;
22260;SDS011;11299;43.202;27.920;2023-05-10T00:40:43;18.30;;;12.57;;
22260;SDS011;11299;43.202;27.920;2023-05-10T00:43:09;21.60;;;10.65;;
22260;SDS011;11299;43.202;27.920;2023-05-10T00:45:34;18.80;;;9.57;;
22260;SDS011;11299;43.202;27.920;2023-05-10T00:48:01;15.13;;;9.13;;
22260;SDS011;11299;43.202;27.920;2023-05-10T00:50:28;15.30;;;9.40;;
22260;SDS011;11299;43.202;27.920;2023-05-10T00:52:55;17.55;;;8.80;;
22260;SDS011;11299;43.202;27.920;2023-05-10T00:55:22;15.23;;;8.63;;
22260;SDS011;11299;43.202;27.920;2023-05-10T00:57:48;15.20;;;8.30;;
22260;SDS011;11299;43.202;27.920;2023-05-10T01:00:14;14.02;;;8.95;;
22260;SDS011;11299;43.202;27.920;2023-05-10T01:02:43;13.23;;;8.90;;
22260;SDS011;11299;43.202;27.920;2023-05-10T01:05:10;16.35;;;8.88;;
22260;SDS011;11299;43.202;27.920;2023-05-10T01:07:36;16.13;;;8.70;;
22260;SDS011;11299;43.202;27.920;2023-05-10T01:10:01;11.48;;;8.15;;
22260;SDS011;11299;43.202;27.920;2023-05-10T01:12:27;18.23;;;8.27;;
22260;SDS011;11299;43.202;27.920;2023-05-10T01:14:52;13.25;;;8.85;;
22260;SDS011;11299;43.202;27.920;2023-05-10T01:17:19;13.30;;;8.38;;
22260;SDS011;11299;43.202;27.920;2023-05-10T01:19:45;11.55;;;7.63;;
22260;SDS011;11299;43.202;27.920;2023-05-10T01:25:11;10.45;;;7.50;;
22260;SDS011;11299;43.202;27.920;2023-05-10T01:35:40;15.40;;;7.55;;
22260;SDS011;11299;43.202;27.920;2023-05-10T01:43:45;15.60;;;8.35;;
22260;SDS011;11299;43.202;27.920;2023-05-10T01:46:28;14.23;;;7.80;;
22260;SDS011;11299;43.202;27.920;2023-05-10T01:48:58;15.15;;;8.27;;
22260;SDS011;11299;43.202;27.920;2023-05-10T01:51:27;9.52;;;7.68;;
22260;SDS011;11299;43.202;27.920;2023-05-10T01:54:02;16.15;;;8.13;;
22260;SDS011;11299;43.202;27.920;2023-05-10T01:56:29;12.10;;;8.15;;
22260;SDS011;11299;43.202;27.920;2023-05-10T01:58:57;11.20;;;8.23;;
22260;SDS011;11299;43.202;27.920;2023-05-10T02:01:25;11.00;;;8.55;;
22260;SDS011;11299;43.202;27.920;2023-05-10T02:03:52;14.43;;;8.93;;
22260;SDS011;11299;43.202;27.920;2023-05-10T02:06:20;15.35;;;9.23;;
22260;SDS011;11299;43.202;27.920;2023-05-10T02:08:49;13.38;;;7.88;;
22260;SDS011;11299;43.202;27.920;2023-05-10T02:11:17;16.38;;;9.95;;
22260;SDS011;11299;43.202;27.920;2023-05-10T02:13:44;16.05;;;9.52;;
22260;SDS011;11299;43.202;27.920;2023-05-10T02:16:12;19.75;;;9.30;;
22260;SDS011;11299;43.202;27.920;2023-05-10T02:18:39;12.88;;;9.15;;
22260;SDS011;11299;43.202;27.920;2023-05-10T02:21:06;18.05;;;9.98;;
22260;SDS011;11299;43.202;27.920;2023-05-10T02:23:33;15.10;;;10.05;;
22260;SDS011;11299;43.202;27.920;2023-05-10T02:26:00;17.90;;;9.55;;
22260;SDS011;11299;43.202;27.920;2023-05-10T02:28:27;17.25;;;9.57;;
22260;SDS011;11299;43.202;27.920;2023-05-10T02:30:54;13.43;;;9.40;;
22260;SDS011;11299;43.202;27.920;2023-05-10T02:33:20;16.95;;;9.77;;
22260;SDS011;11299;43.202;27.920;2023-05-10T02:35:47;15.50;;;9.07;;
22260;SDS011;11299;43.202;27.920;2023-05-10T02:38:14;13.90;;;9.77;;
22260;SDS011;11299;43.202;27.920;2023-05-10T02:40:41;16.38;;;10.05;;
22260;SDS011;11299;43.202;27.920;2023-05-10T02:43:09;14.95;;;9.77;;
22260;SDS011;11299;43.202;27.920;2023-05-10T02:45:38;14.77;;;9.80;;
22260;SDS011;11299;43.202;27.920;2023-05-10T02:48:05;15.93;;;10.18;;
22260;SDS011;11299;43.202;27.920;2023-05-10T02:50:32;17.17;;;10.65;;
22260;SDS011;11299;43.202;27.920;2023-05-10T02:53:03;15.52;;;10.27;;
22260;SDS011;11299;43.202;27.920;2023-05-10T02:55:38;16.80;;;10.50;;
22260;SDS011;11299;43.202;27.920;2023-05-10T02:58:05;15.00;;;10.10;;
22260;SDS011;11299;43.202;27.920;2023-05-10T03:00:32;17.27;;;10.88;;
22260;SDS011;11299;43.202;27.920;2023-05-10T03:02:57;19.42;;;12.00;;
22260;SDS011;11299;43.202;27.920;2023-05-10T03:05:23;17.92;;;11.77;;
22260;SDS011;11299;43.202;27.920;2023-05-10T03:07:49;17.30;;;10.82;;
22260;SDS011;11299;43.202;27.920;2023-05-10T03:10:15;19.42;;;11.45;;
22260;SDS011;11299;43.202;27.920;2023-05-10T03:21:04;20.20;;;11.43;;
22260;SDS011;11299;43.202;27.920;2023-05-10T03:23:34;16.38;;;10.30;;
22260;SDS011;11299;43.202;27.920;2023-05-10T03:26:05;16.27;;;11.57;;
22260;SDS011;11299;43.202;27.920;2023-05-10T03:28:32;15.90;;;11.35;;
22260;SDS011;11299;43.202;27.920;2023-05-10T03:30:59;19.73;;;12.77;;
22260;SDS011;11299;43.202;27.920;2023-05-10T03:33:25;17.65;;;11.73;;
22260;SDS011;11299;43.202;27.920;2023-05-10T03:35:50;18.33;;;11.85;;
22260;SDS011;11299;43.202;27.920;2023-05-10T03:38:16;16.98;;;10.75;;
22260;SDS011;11299;43.202;27.920;2023-05-10T03:40:41;22.45;;;11.52;;
22260;SDS011;11299;43.202;27.920;2023-05-10T03:43:07;18.58;;;11.95;;
22260;SDS011;11299;43.202;27.920;2023-05-10T03:45:32;19.48;;;11.32;;
22260;SDS011;11299;43.202;27.920;2023-05-10T03:47:58;16.90;;;10.60;;
22260;SDS011;11299;43.202;27.920;2023-05-10T03:50:23;21.73;;;11.50;;
22260;SDS011;11299;43.202;27.920;2023-05-10T03:52:49;20.63;;;11.55;;
22260;SDS011;11299;43.202;27.920;2023-05-10T03:55:15;19.63;;;11.77;;
22260;SDS011;11299;43.202;27.920;2023-05-10T03:57:41;20.60;;;10.50;;
22260;SDS011;11299;43.202;27.920;2023-05-10T04:00:07;19.02;;;11.23;;
22260;SDS011;11299;43.202;27.920;2023-05-10T04:02:33;19.48;;;11.68;;
22260;SDS011;11299;43.202;27.920;2023-05-10T04:04:58;19.83;;;12.02;;
22260;SDS011;11299;43.202;27.920;2023-05-10T04:07:24;21.77;;;12.60;;
22260;SDS011;11299;43.202;27.920;2023-05-10T04:09:49;20.00;;;10.57;;
22260;SDS011;11299;43.202;27.920;2023-05-10T04:12:15;20.10;;;11.68;;
22260;SDS011;11299;43.202;27.920;2023-05-10T04:14:40;21.35;;;11.82;;
22260;SDS011;11299;43.202;27.920;2023-05-10T04:17:06;21.27;;;11.30;;
22260;SDS011;11299;43.202;27.920;2023-05-10T04:19:31;19.15;;;11.45;;
22260;SDS011;11299;43.202;27.920;2023-05-10T04:21:57;21.13;;;10.77;;
22260;SDS011;11299;43.202;27.920;2023-05-10T04:24:23;16.85;;;10.55;;
22260;SDS011;11299;43.202;27.920;2023-05-10T04:26:49;14.45;;;9.70;;
22260;SDS011;11299;43.202;27.920;2023-05-10T04:29:14;13.77;;;9.02;;
22260;SDS011;11299;43.202;27.920;2023-05-10T04:31:40;12.73;;;8.25;;
22260;SDS011;11299;43.202;27.920;2023-05-10T04:34:05;11.27;;;7.43;;
22260;SDS011;11299;43.202;27.920;2023-05-10T04:36:31;8.15;;;4.75;;
22260;SDS011;11299;43.202;27.920;2023-05-10T04:38:58;8.40;;;4.80;;
22260;SDS011;11299;43.202;27.920;2023-05-10T04:41:24;5.55;;;3.92;;
22260;SDS011;11299;43.202;27.920;2023-05-10T04:43:50;8.20;;;4.72;;
22260;SDS011;11299;43.202;27.920;2023-05-10T04:46:16;10.82;;;4.90;;
22260;SDS011;11299;43.202;27.920;2023-05-10T04:48:41;8.55;;;4.68;;
22260;SDS011;11299;43.202;27.920;2023-05-10T04:51:07;7.47;;;4.05;;
22260;SDS011;11299;43.202;27.920;2023-05-10T04:53:32;8.18;;;4.25;;
22260;SDS011;11299;43.202;27.920;2023-05-10T04:55:57;6.63;;;3.85;;
22260;SDS011;11299;43.202;27.920;2023-05-10T04:58:23;9.25;;;4.68;;
22260;SDS011;11299;43.202;27.920;2023-05-10T05:00:48;6.07;;;3.70;;
22260;SDS011;11299;43.202;27.920;2023-05-10T05:03:14;7.95;;;3.85;;
22260;SDS011;11299;43.202;27.920;2023-05-10T05:05:39;5.85;;;3.42;;
22260;SDS011;11299;43.202;27.920;2023-05-10T05:08:05;7.18;;;3.83;;
22260;SDS011;11299;43.202;27.920;2023-05-10T05:10:30;5.47;;;3.67;;
22260;SDS011;11299;43.202;27.920;2023-05-10T05:12:56;7.30;;;3.53;;
22260;SDS011;11299;43.202;27.920;2023-05-10T05:15:21;12.52;;;3.78;;
22260;SDS011;11299;43.202;27.920;2023-05-10T05:17:47;5.78;;;3.30;;
22260;SDS011;11299;43.202;27.920;2023-05-10T05:20:12;9.25;;;3.60;;
22260;SDS011;11299;43.202;27.920;2023-05-10T05:22:38;7.78;;;4.13;;
22260;SDS011;11299;43.202;27.920;2023-05-10T05:25:04;7.22;;;3.65;;
22260;SDS011;11299;43.202;27.920;2023-05-10T05:27:29;7.57;;;3.80;;
22260;SDS011;11299;43.202;27.920;2023-05-10T05:29:56;6.50;;;3.42;;
22260;SDS011;11299;43.202;27.920;2023-05-10T05:32:22;8.70;;;3.53;;
22260;SDS011;11299;43.202;27.920;2023-05-10T05:34:48;7.85;;;4.03;;
22260;SDS011;11299;43.202;27.920;2023-05-10T05:37:14;14.07;;;4.50;;
22260;SDS011;11299;43.202;27.920;2023-05-10T05:39:41;7.18;;;3.42;;
22260;SDS011;11299;43.202;27.920;2023-05-10T05:42:08;8.38;;;3.03;;
22260;SDS011;11299;43.202;27.920;2023-05-10T05:44:34;6.50;;;2.60;;
22260;SDS011;11299;43.202;27.920;2023-05-10T05:47:00;4.80;;;2.92;;
22260;SDS011;11299;43.202;27.920;2023-05-10T05:49:25;5.68;;;3.10;;
22260;SDS011;11299;43.202;27.920;2023-05-10T05:51:51;6.50;;;3.30;;
22260;SDS011;11299;43.202;27.920;2023-05-10T05:54:16;7.03;;;3.15;;
22260;SDS011;11299;43.202;27.920;2023-05-10T05:56:42;5.38;;;2.92;;
22260;SDS011;11299;43.202;27.920;2023-05-10T05:59:07;8.55;;;3.35;;
22260;SDS011;11299;43.202;27.920;2023-05-10T06:01:33;9.98;;;3.25;;
22260;SDS011;11299;43.202;27.920;2023-05-10T06:03:58;9.10;;;4.22;;
22260;SDS011;11299;43.202;27.920;2023-05-10T06:06:24;5.88;;;3.08;;
22260;SDS011;11299;43.202;27.920;2023-05-10T06:08:49;7.47;;;3.58;;
22260;SDS011;11299;43.202;27.920;2023-05-10T06:11:15;6.07;;;2.90;;
22260;SDS011;11299;43.202;27.920;2023-05-10T06:13:40;7.28;;;3.00;;
22260;SDS011;11299;43.202;27.920;2023-05-10T06:16:07;7.13;;;3.38;;
22260;SDS011;11299;43.202;27.920;2023-05-10T06:18:32;6.70;;;3.40;;
22260;SDS011;11299;43.202;27.920;2023-05-10T06:20:58;7.25;;;3.30;;
22260;SDS011;11299;43.202;27.920;2023-05-10T06:23:23;6.13;;;2.97;;
22260;SDS011;11299;43.202;27.920;2023-05-10T06:25:50;5.50;;;3.28;;
22260;SDS011;11299;43.202;27.920;2023-05-10T06:28:16;4.57;;;2.78;;
22260;SDS011;11299;43.202;27.920;2023-05-10T06:30:41;4.78;;;3.30;;
22260;SDS011;11299;43.202;27.920;2023-05-10T06:33:07;4.95;;;3.65;;
22260;SDS011;11299;43.202;27.920;2023-05-10T06:35:33;3.63;;;3.17;;
22260;SDS011;11299;43.202;27.920;2023-05-10T06:37:58;6.35;;;3.50;;
22260;SDS011;11299;43.202;27.920;2023-05-10T06:40:24;5.03;;;3.78;;
22260;SDS011;11299;43.202;27.920;2023-05-10T06:42:49;5.05;;;3.60;;
22260;SDS011;11299;43.202;27.920;2023-05-10T06:45:15;8.07;;;3.88;;
22260;SDS011;11299;43.202;27.920;2023-05-10T06:47:41;7.20;;;4.07;;
22260;SDS011;11299;43.202;27.920;2023-05-10T06:50:13;7.05;;;3.30;;
22260;SDS011;11299;43.202;27.920;2023-05-10T06:52:39;3.75;;;3.08;;
22260;SDS011;11299;43.202;27.920;2023-05-10T06:55:04;7.93;;;3.30;;
22260;SDS011;11299;43.202;27.920;2023-05-10T06:57:30;9.30;;;2.85;;
22260;SDS011;11299;43.202;27.920;2023-05-10T06:59:57;4.78;;;3.17;;
22260;SDS011;11299;43.202;27.920;2023-05-10T07:02:23;7.60;;;3.53;;
22260;SDS011;11299;43.202;27.920;2023-05-10T07:04:48;3.63;;;2.97;;
22260;SDS011;11299;43.202;27.920;2023-05-10T07:07:14;4.72;;;2.88;;
22260;SDS011;11299;43.202;27.920;2023-05-10T07:09:40;7.03;;;3.10;;
22260;SDS011;11299;43.202;27.920;2023-05-10T07:12:05;5.10;;;3.08;;
22260;SDS011;11299;43.202;27.920;2023-05-10T07:14:31;5.32;;;3.10;;
22260;SDS011;11299;43.202;27.920;2023-05-10T07:16:56;5.38;;;2.60;;
22260;SDS011;11299;43.202;27.920;2023-05-10T07:19:22;4.28;;;2.95;;
22260;SDS011;11299;43.202;27.920;2023-05-10T07:21:48;5.72;;;3.03;;
22260;SDS011;11299;43.202;27.920;2023-05-10T07:24:13;4.75;;;2.80;;
22260;SDS011;11299;43.202;27.920;2023-05-10T07:26:38;4.03;;;3.08;;
22260;SDS011;11299;43.202;27.920;2023-05-10T07:29:04;3.70;;;2.53;;
22260;SDS011;11299;43.202;27.920;2023-05-10T07:31:30;5.55;;;2.55;;
22260;SDS011;11299;43.202;27.920;2023-05-10T07:33:55;5.95;;;2.85;;
22260;SDS011;11299;43.202;27.920;2023-05-10T07:36:21;6.60;;;2.70;;
22260;SDS011;11299;43.202;27.920;2023-05-10T07:38:46;3.53;;;2.72;;
22260;SDS011;11299;43.202;27.920;2023-05-10T07:41:12;7.15;;;3.03;;
22260;SDS011;11299;43.202;27.920;2023-05-10T07:43:37;4.57;;;3.15;;
22260;SDS011;11299;43.202;27.920;2023-05-10T07:46:03;6.25;;;3.13;;
22260;SDS011;11299;43.202;27.920;2023-05-10T07:48:28;4.90;;;2.83;;
22260;SDS011;11299;43.202;27.920;2023-05-10T07:50:54;4.10;;;2.97;;
22260;SDS011;11299;43.202;27.920;2023-05-10T07:53:19;5.93;;;3.05;;
22260;SDS011;11299;43.202;27.920;2023-05-10T07:55:49;8.20;;;4.20;;
22260;SDS011;11299;43.202;27.920;2023-05-10T07:58:15;5.55;;;2.70;;
22260;SDS011;11299;43.202;27.920;2023-05-10T08:00:41;5.43;;;2.85;;
22260;SDS011;11299;43.202;27.920;2023-05-10T08:03:06;5.13;;;3.42;;
22260;SDS011;11299;43.202;27.920;2023-05-10T08:05:31;4.40;;;2.63;;
22260;SDS011;11299;43.202;27.920;2023-05-10T08:07:57;4.00;;;2.90;;
22260;SDS011;11299;43.202;27.920;2023-05-10T08:10:23;5.45;;;2.70;;
22260;SDS011;11299;43.202;27.920;2023-05-10T08:12:49;5.65;;;2.55;;
22260;SDS011;11299;43.202;27.920;2023-05-10T08:15:14;2.75;;;2.40;;
22260;SDS011;11299;43.202;27.920;2023-05-10T08:17:40;4.65;;;2.60;;
22260;SDS011;11299;43.202;27.920;2023-05-10T08:20:06;4.32;;;2.40;;
22260;SDS011;11299;43.202;27.920;2023-05-10T08:22:32;6.47;;;2.97;;
22260;SDS011;11299;43.202;27.920;2023-05-10T08:24:58;3.33;;;2.55;;
22260;SDS011;11299;43.202;27.920;2023-05-10T08:27:23;4.82;;;2.90;;
22260;SDS011;11299;43.202;27.920;2023-05-10T08:29:49;6.50;;;3.00;;
22260;SDS011;11299;43.202;27.920;2023-05-10T08:32:14;7.18;;;2.92;;
22260;SDS011;11299;43.202;27.920;2023-05-10T08:34:40;6.18;;;2.70;;
22260;SDS011;11299;43.202;27.920;2023-05-10T08:37:05;4.65;;;2.55;;
22260;SDS011;11299;43.202;27.920;2023-05-10T08:39:33;4.68;;;2.78;;
22260;SDS011;11299;43.202;27.920;2023-05-10T08:42:01;5.55;;;2.83;;
22260;SDS011;11299;43.202;27.920;2023-05-10T08:44:29;5.25;;;2.60;;
22260;SDS011;11299;43.202;27.920;2023-05-10T08:46:57;8.00;;;2.85;;
22260;SDS011;11299;43.202;27.920;2023-05-10T08:49:26;3.17;;;2.60;;
22260;SDS011;11299;43.202;27.920;2023-05-10T08:51:55;7.85;;;3.17;;
22260;SDS011;11299;43.202;27.920;2023-05-10T08:54:22;9.90;;;3.17;;
22260;SDS011;11299;43.202;27.920;2023-05-10T08:56:48;4.22;;;2.70;;
22260;SDS011;11299;43.202;27.920;2023-05-10T08:59:13;4.20;;;2.33;;
22260;SDS011;11299;43.202;27.920;2023-05-10T09:01:40;6.03;;;3.10;;
22260;SDS011;11299;43.202;27.920;2023-05-10T09:04:07;5.53;;;3.08;;
22260;SDS011;11299;43.202;27.920;2023-05-10T09:06:33;4.00;;;2.55;;
22260;SDS011;11299;43.202;27.920;2023-05-10T09:08:59;6.60;;;3.40;;
22260;SDS011;11299;43.202;27.920;2023-05-10T09:11:24;3.70;;;2.90;;
22260;SDS011;11299;43.202;27.920;2023-05-10T09:13:50;4.45;;;3.20;;
22260;SDS011;11299;43.202;27.920;2023-05-10T09:16:17;6.90;;;2.78;;
22260;SDS011;11299;43.202;27.920;2023-05-10T09:18:42;6.07;;;3.15;;
22260;SDS011;11299;43.202;27.920;2023-05-10T09:21:08;7.10;;;2.80;;
22260;SDS011;11299;43.202;27.920;2023-05-10T09:23:35;6.68;;;2.65;;
22260;SDS011;11299;43.202;27.920;2023-05-10T09:26:04;9.60;;;3.30;;
22260;SDS011;11299;43.202;27.920;2023-05-10T09:31:18;7.47;;;3.28;;
22260;SDS011;11299;43.202;27.920;2023-05-10T09:33:45;5.93;;;3.13;;
22260;SDS011;11299;43.202;27.920;2023-05-10T09:36:12;5.90;;;3.00;;
22260;SDS011;11299;43.202;27.920;2023-05-10T09:38:48;7.35;;;3.20;;
22260;SDS011;11299;43.202;27.920;2023-05-10T09:41:18;4.45;;;3.08;;
22260;SDS011;11299;43.202;27.920;2023-05-10T09:43:47;8.45;;;3.30;;
22260;SDS011;11299;43.202;27.920;2023-05-10T09:46:14;6.50;;;3.25;;
22260;SDS011;11299;43.202;27.920;2023-05-10T09:48:45;8.57;;;3.05;;
22260;SDS011;11299;43.202;27.920;2023-05-10T09:51:22;4.85;;;2.80;;
22260;SDS011;11299;43.202;27.920;2023-05-10T09:54:08;11.02;;;2.95;;
22260;SDS011;11299;43.202;27.920;2023-05-10T09:56:38;5.65;;;2.80;;
22260;SDS011;11299;43.202;27.920;2023-05-10T09:59:05;6.18;;;2.60;;
22260;SDS011;11299;43.202;27.920;2023-05-10T10:01:33;4.22;;;2.50;;
22260;SDS011;11299;43.202;27.920;2023-05-10T10:04:01;7.55;;;2.50;;
22260;SDS011;11299;43.202;27.920;2023-05-10T10:06:28;5.28;;;2.90;;
22260;SDS011;11299;43.202;27.920;2023-05-10T10:08:54;8.48;;;3.30;;
22260;SDS011;11299;43.202;27.920;2023-05-10T10:11:21;4.90;;;3.00;;
22260;SDS011;11299;43.202;27.920;2023-05-10T10:13:48;8.77;;;3.42;;
22260;SDS011;11299;43.202;27.920;2023-05-10T10:16:14;7.43;;;3.00;;
22260;SDS011;11299;43.202;27.920;2023-05-10T10:18:39;4.60;;;2.70;;
22260;SDS011;11299;43.202;27.920;2023-05-10T10:21:09;4.65;;;2.42;;
22260;SDS011;11299;43.202;27.920;2023-05-10T10:23:35;4.65;;;2.95;;
22260;SDS011;11299;43.202;27.920;2023-05-10T10:26:04;8.50;;;2.80;;
22260;SDS011;11299;43.202;27.920;2023-05-10T10:31:39;5.50;;;3.38;;
22260;SDS011;11299;43.202;27.920;2023-05-10T10:34:10;3.58;;;2.75;;
22260;SDS011;11299;43.202;27.920;2023-05-10T10:36:45;6.85;;;3.47;;
22260;SDS011;11299;43.202;27.920;2023-05-10T10:39:14;6.30;;;3.20;;
22260;SDS011;11299;43.202;27.920;2023-05-10T10:44:36;8.85;;;2.83;;
22260;SDS011;11299;43.202;27.920;2023-05-10T10:52:14;5.68;;;2.83;;
22260;SDS011;11299;43.202;27.920;2023-05-10T10:54:52;8.35;;;3.70;;
22260;SDS011;11299;43.202;27.920;2023-05-10T10:57:23;7.78;;;4.35;;
22260;SDS011;11299;43.202;27.920;2023-05-10T10:59:48;5.75;;;3.08;;
22260;SDS011;11299;43.202;27.920;2023-05-10T11:06:00;8.25;;;4.97;;
22260;SDS011;11299;43.202;27.920;2023-05-10T11:10:38;4.47;;;2.38;;
22260;SDS011;11299;43.202;27.920;2023-05-10T11:13:05;5.50;;;2.28;;
22260;SDS011;11299;43.202;27.920;2023-05-10T11:15:36;6.68;;;3.30;;
22260;SDS011;11299;43.202;27.920;2023-05-10T11:18:23;5.10;;;2.78;;
22260;SDS011;11299;43.202;27.920;2023-05-10T11:21:08;7.05;;;2.50;;
22260;SDS011;11299;43.202;27.920;2023-05-10T11:23:48;5.55;;;3.40;;
22260;SDS011;11299;43.202;27.920;2023-05-10T11:26:15;6.57;;;3.72;;
22260;SDS011;11299;43.202;27.920;2023-05-10T11:28:42;4.68;;;3.05;;
22260;SDS011;11299;43.202;27.920;2023-05-10T11:31:15;5.07;;;3.58;;
22260;SDS011;11299;43.202;27.920;2023-05-10T11:33:45;5.10;;;2.72;;
22260;SDS011;11299;43.202;27.920;2023-05-10T11:36:16;5.93;;;2.97;;
22260;SDS011;11299;43.202;27.920;2023-05-10T11:38:46;6.40;;;2.60;;
22260;SDS011;11299;43.202;27.920;2023-05-10T11:41:12;8.10;;;3.63;;
22260;SDS011;11299;43.202;27.920;2023-05-10T11:43:42;5.13;;;2.60;;
22260;SDS011;11299;43.202;27.920;2023-05-10T11:46:07;5.60;;;2.67;;
22260;SDS011;11299;43.202;27.920;2023-05-10T11:48:35;4.93;;;3.03;;
22260;SDS011;11299;43.202;27.920;2023-05-10T11:51:01;9.60;;;4.20;;
22260;SDS011;11299;43.202;27.920;2023-05-10T11:53:29;9.98;;;3.25;;
22260;SDS011;11299;43.202;27.920;2023-05-10T11:58:33;3.78;;;2.63;;
22260;SDS011;11299;43.202;27.920;2023-05-10T12:00:59;11.77;;;3.70;;
22260;SDS011;11299;43.202;27.920;2023-05-10T12:03:25;8.88;;;3.83;;
22260;SDS011;11299;43.202;27.920;2023-05-10T12:05:52;5.78;;;2.75;;
22260;SDS011;11299;43.202;27.920;2023-05-10T12:08:23;6.15;;;3.50;;
22260;SDS011;11299;43.202;27.920;2023-05-10T12:10:49;11.60;;;5.10;;
22260;SDS011;11299;43.202;27.920;2023-05-10T12:13:16;4.90;;;3.17;;
22260;SDS011;11299;43.202;27.920;2023-05-10T12:15:42;6.38;;;3.03;;
22260;SDS011;11299;43.202;27.920;2023-05-10T12:18:11;7.00;;;3.33;;
22260;SDS011;11299;43.202;27.920;2023-05-10T12:20:38;8.52;;;4.40;;
22260;SDS011;11299;43.202;27.920;2023-05-10T12:23:04;5.38;;;2.45;;
22260;SDS011;11299;43.202;27.920;2023-05-10T12:25:31;3.13;;;2.30;;
22260;SDS011;11299;43.202;27.920;2023-05-10T12:28:02;3.30;;;2.92;;
22260;SDS011;11299;43.202;27.920;2023-05-10T12:30:30;4.90;;;2.97;;
22260;SDS011;11299;43.202;27.920;2023-05-10T12:33:07;8.50;;;4.28;;
22260;SDS011;11299;43.202;27.920;2023-05-10T12:35:33;5.30;;;3.45;;
22260;SDS011;11299;43.202;27.920;2023-05-10T12:41:15;5.35;;;3.10;;
22260;SDS011;11299;43.202;27.920;2023-05-10T12:43:42;5.13;;;2.42;;
22260;SDS011;11299;43.202;27.920;2023-05-10T12:46:09;8.32;;;3.10;;
22260;SDS011;11299;43.202;27.920;2023-05-10T12:48:39;4.43;;;2.60;;
22260;SDS011;11299;43.202;27.920;2023-05-10T12:51:06;8.30;;;2.75;;
22260;SDS011;11299;43.202;27.920;2023-05-10T12:53:34;6.63;;;3.22;;
22260;SDS011;11299;43.202;27.920;2023-05-10T12:56:00;5.75;;;2.80;;
22260;SDS011;11299;43.202;27.920;2023-05-10T12:58:26;9.63;;;3.30;;
22260;SDS011;11299;43.202;27.920;2023-05-10T13:00:52;3.28;;;2.25;;
22260;SDS011;11299;43.202;27.920;2023-05-10T13:03:17;6.90;;;2.20;;
22260;SDS011;11299;43.202;27.920;2023-05-10T13:05:43;7.50;;;2.50;;
22260;SDS011;11299;43.202;27.920;2023-05-10T13:08:09;5.13;;;3.03;;
22260;SDS011;11299;43.202;27.920;2023-05-10T13:10:34;5.55;;;2.75;;
22260;SDS011;11299;43.202;27.920;2023-05-10T13:12:59;3.58;;;2.45;;
22260;SDS011;11299;43.202;27.920;2023-05-10T13:15:25;5.07;;;2.35;;
22260;SDS011;11299;43.202;27.920;2023-05-10T13:17:51;4.38;;;2.85;;
22260;SDS011;11299;43.202;27.920;2023-05-10T13:20:17;6.20;;;2.90;;
22260;SDS011;11299;43.202;27.920;2023-05-10T13:22:43;6.35;;;3.33;;
22260;SDS011;11299;43.202;27.920;2023-05-10T13:25:09;7.03;;;2.67;;
22260;SDS011;11299;43.202;27.920;2023-05-10T13:27:35;5.63;;;2.38;;
22260;SDS011;11299;43.202;27.920;2023-05-10T13:30:01;7.70;;;2.33;;
22260;SDS011;11299;43.202;27.920;2023-05-10T13:32:28;9.35;;;2.75;;
22260;SDS011;11299;43.202;27.920;2023-05-10T13:34:54;6.10;;;2.67;;
22260;SDS011;11299;43.202;27.920;2023-05-10T13:37:20;6.78;;;2.55;;
22260;SDS011;11299;43.202;27.920;2023-05-10T13:39:45;7.97;;;3.22;;
22260;SDS011;11299;43.202;27.920;2023-05-10T13:42:11;4.43;;;2.53;;
22260;SDS011;11299;43.202;27.920;2023-05-10T13:44:36;6.45;;;2.35;;
22260;SDS011;11299;43.202;27.920;2023-05-10T13:47:03;7.50;;;2.60;;
22260;SDS011;11299;43.202;27.920;2023-05-10T13:49:29;7.45;;;2.50;;
22260;SDS011;11299;43.202;27.920;2023-05-10T13:51:54;4.40;;;2.70;;
22260;SDS011;11299;43.202;27.920;2023-05-10T13:54:20;4.07;;;2.13;;
22260;SDS011;11299;43.202;27.920;2023-05-10T13:56:47;4.75;;;2.53;;
22260;SDS011;11299;43.202;27.920;2023-05-10T13:59:13;5.07;;;2.38;;
22260;SDS011;11299;43.202;27.920;2023-05-10T14:01:39;4.97;;;2.78;;
22260;SDS011;11299;43.202;27.920;2023-05-10T14:04:05;4.68;;;2.53;;
22260;SDS011;11299;43.202;27.920;2023-05-10T14:06:32;4.45;;;2.35;;
22260;SDS011;11299;43.202;27.920;2023-05-10T14:08:57;6.05;;;2.70;;
22260;SDS011;11299;43.202;27.920;2023-05-10T14:11:22;4.88;;;2.08;;
22260;SDS011;11299;43.202;27.920;2023-05-10T14:13:48;7.22;;;3.78;;
22260;SDS011;11299;43.202;27.920;2023-05-10T14:16:14;4.97;;;2.47;;
22260;SDS011;11299;43.202;27.920;2023-05-10T14:18:40;5.28;;;3.00;;
22260;SDS011;11299;43.202;27.920;2023-05-10T14:21:05;3.95;;;2.80;;
22260;SDS011;11299;43.202;27.920;2023-05-10T14:23:31;4.95;;;2.75;;
22260;SDS011;11299;43.202;27.920;2023-05-10T14:25:56;4.97;;;2.75;;
22260;SDS011;11299;43.202;27.920;2023-05-10T14:28:22;6.38;;;2.78;;
22260;SDS011;11299;43.202;27.920;2023-05-10T14:30:48;4.03;;;2.70;;
22260;SDS011;11299;43.202;27.920;2023-05-10T14:33:14;4.10;;;2.25;;
22260;SDS011;11299;43.202;27.920;2023-05-10T14:35:39;7.95;;;2.45;;
22260;SDS011;11299;43.202;27.920;2023-05-10T14:38:05;5.68;;;2.75;;
22260;SDS011;11299;43.202;27.920;2023-05-10T14:40:31;6.15;;;2.40;;
22260;SDS011;11299;43.202;27.920;2023-05-10T14:42:57;8.23;;;2.92;;
22260;SDS011;11299;43.202;27.920;2023-05-10T14:45:22;6.75;;;2.75;;
22260;SDS011;11299;43.202;27.920;2023-05-10T14:47:48;8.43;;;3.15;;
22260;SDS011;11299;43.202;27.920;2023-05-10T14:50:14;6.13;;;2.53;;
22260;SDS011;11299;43.202;27.920;2023-05-10T14:55:59;5.38;;;2.78;;
22260;SDS011;11299;43.202;27.920;2023-05-10T14:58:26;8.05;;;2.78;;
22260;SDS011;11299;43.202;27.920;2023-05-10T15:00:52;5.53;;;2.72;;
22260;SDS011;11299;43.202;27.920;2023-05-10T15:03:17;7.15;;;2.88;;
22260;SDS011;11299;43.202;27.920;2023-05-10T15:05:43;4.65;;;2.78;;
22260;SDS011;11299;43.202;27.920;2023-05-10T15:08:08;4.60;;;2.53;;
22260;SDS011;11299;43.202;27.920;2023-05-10T15:10:34;5.80;;;3.17;;
22260;SDS011;11299;43.202;27.920;2023-05-10T15:13:00;7.53;;;2.55;;
22260;SDS011;11299;43.202;27.920;2023-05-10T15:15:26;6.35;;;2.97;;
22260;SDS011;11299;43.202;27.920;2023-05-10T15:17:51;9.63;;;3.33;;
22260;SDS011;11299;43.202;27.920;2023-05-10T15:20:17;6.15;;;2.78;;